Time;durP1;ratioP1;P1;durP2;ratioP2;P2;SDS_P1;SDS_P2;PMS_P1;PMS_P2;Temp;Humidity;BMP_temperature;BMP_pressure;BME280_temperature;BME280_humidity;BME280_pressure;Samples;Min_cycle;Max_cycle;Signal;HPM_P1;HPM_P2
2021/12/13 00:00:21;;;;;;;1.20;1.00;;;6.70;98.00;;;;;;5115180;28;20491;-71
2021/12/13 00:03:00;;;;;;;1.40;1.10;;;6.70;98.00;;;;;;5115172;28;20451;-71
2021/12/13 00:05:33;;;;;;;1.90;1.10;;;6.70;98.00;;;;;;5115146;28;20492;-70
2021/12/13 00:08:05;;;;;;;2.30;1.50;;;6.70;98.00;;;;;;5115096;28;20494;-70
2021/12/13 00:10:37;;;;;;;1.30;1.10;;;6.70;98.00;;;;;;5114951;28;20487;-71
2021/12/13 00:13:09;;;;;;;1.30;1.10;;;6.70;98.00;;;;;;5114891;28;20524;-70
2021/12/13 00:15:47;;;;;;;1.63;1.00;;;6.80;98.00;;;;;;5114910;28;20516;-72
2021/12/13 00:18:21;;;;;;;1.20;1.00;;;6.80;98.00;;;;;;5114918;28;20507;-70
2021/12/13 00:20:54;;;;;;;1.30;1.10;;;6.80;98.00;;;;;;5114795;28;21022;-71
2021/12/13 00:23:26;;;;;;;1.20;1.00;;;6.70;98.00;;;;;;5114962;28;20938;-71
2021/12/13 00:25:57;;;;;;;1.20;1.00;;;6.70;98.00;;;;;;5114786;28;20859;-71
2021/12/13 00:28:27;;;;;;;1.97;1.20;;;6.70;98.00;;;;;;5113477;28;20967;-71
2021/12/13 00:31:04;;;;;;;9.30;1.20;;;6.80;98.00;;;;;;5114648;28;20477;-70
2021/12/13 00:33:43;;;;;;;1.20;1.00;;;6.80;98.00;;;;;;5114782;28;20483;-72
2021/12/13 00:36:17;;;;;;;1.20;1.00;;;6.80;98.00;;;;;;5114566;28;21134;-71
2021/12/13 00:38:51;;;;;;;1.30;1.30;;;6.80;98.00;;;;;;5114512;28;20501;-71
2021/12/13 00:41:25;;;;;;;1.40;1.07;;;6.80;98.00;;;;;;5114407;28;20495;-71
2021/12/13 00:43:56;;;;;;;2.20;1.20;;;6.80;98.00;;;;;;5114688;28;20540;-72
2021/12/13 00:46:25;;;;;;;1.60;1.20;;;6.70;98.00;;;;;;5114382;28;20457;-71
2021/12/13 00:48:57;;;;;;;1.20;1.00;;;6.70;98.00;;;;;;5114469;28;20496;-70
2021/12/13 00:51:27;;;;;;;1.40;1.20;;;6.70;98.00;;;;;;5114399;28;21021;-70
2021/12/13 00:53:57;;;;;;;1.20;1.00;;;6.70;98.00;;;;;;5114332;28;20541;-70
2021/12/13 00:56:56;;;;;;;1.40;1.10;;;6.70;98.00;;;;;;5113973;28;20541;-71
2021/12/13 00:59:27;;;;;;;1.70;1.20;;;6.70;98.00;;;;;;5113798;28;20456;-70
2021/12/13 01:02:00;;;;;;;1.53;1.10;;;6.70;98.00;;;;;;5113878;28;20447;-72
2021/12/13 01:04:58;;;;;;;1.20;1.00;;;6.80;98.00;;;;;;5114129;28;20465;-71
2021/12/13 01:08:04;;;;;;;1.17;1.00;;;6.90;98.00;;;;;;5113469;28;20490;-71
2021/12/13 01:11:07;;;;;;;1.50;1.13;;;7.00;98.00;;;;;;5113448;28;20884;-70
2021/12/13 01:13:50;;;;;;;1.67;1.20;;;7.00;98.00;;;;;;5113044;28;20526;-71
2021/12/13 01:16:36;;;;;;;1.87;1.20;;;7.00;98.00;;;;;;5112657;28;20449;-70
2021/12/13 01:25:24;;;;;;;2.60;1.63;;;6.80;98.00;;;;;;5112426;28;20444;-70
2021/12/13 01:27:58;;;;;;;1.20;1.00;;;6.70;98.00;;;;;;5112124;28;20469;-71
2021/12/13 01:30:30;;;;;;;1.20;1.00;;;6.70;98.00;;;;;;5113463;28;20485;-71
2021/12/13 01:33:01;;;;;;;1.20;0.90;;;6.60;98.00;;;;;;5113167;28;20534;-71
2021/12/13 01:35:34;;;;;;;1.20;1.20;;;6.60;98.00;;;;;;5113293;28;20494;-70
2021/12/13 01:38:08;;;;;;;1.20;1.10;;;6.50;98.00;;;;;;5112984;28;20494;-70
2021/12/13 01:40:37;;;;;;;1.43;1.30;;;6.50;98.00;;;;;;5113075;28;20842;-70
2021/12/13 01:43:10;;;;;;;1.17;0.90;;;6.40;98.00;;;;;;5113201;28;20451;-71
2021/12/13 01:45:40;;;;;;;2.03;1.37;;;6.40;98.00;;;;;;5113062;28;20459;-71
2021/12/13 01:48:15;;;;;;;1.60;1.10;;;6.40;98.00;;;;;;5112919;28;20835;-70
2021/12/13 01:50:47;;;;;;;2.63;1.63;;;6.50;98.00;;;;;;5113195;28;20482;-71
2021/12/13 01:53:19;;;;;;;1.67;1.50;;;6.60;98.00;;;;;;5112899;28;20516;-70
2021/12/13 01:55:48;;;;;;;1.83;1.27;;;6.60;98.00;;;;;;5112284;28;20532;-72
2021/12/13 01:58:35;;;;;;;1.13;0.97;;;6.60;98.00;;;;;;5113103;28;20465;-71
2021/12/13 02:01:09;;;;;;;1.57;1.30;;;6.60;98.00;;;;;;5112917;28;20514;-70
2021/12/13 02:03:45;;;;;;;1.23;1.07;;;6.50;98.00;;;;;;5112957;28;20552;-71
2021/12/13 02:06:15;;;;;;;1.20;1.00;;;6.50;98.00;;;;;;5111714;28;20545;-71
2021/12/13 02:08:43;;;;;;;1.80;1.20;;;6.50;98.00;;;;;;5113088;28;20631;-71
2021/12/13 02:11:10;;;;;;;2.60;1.33;;;6.50;98.00;;;;;;5112765;28;20539;-71
2021/12/13 02:13:48;;;;;;;1.70;1.37;;;6.50;98.00;;;;;;5111760;28;20564;-70
2021/12/13 02:19:23;;;;;;;1.80;1.10;;;6.40;98.00;;;;;;5069529;28;20458;-71
2021/12/13 02:21:57;;;;;;;1.20;1.10;;;6.40;98.00;;;;;;5105503;28;20494;-70
2021/12/13 02:24:26;;;;;;;3.13;1.20;;;6.40;98.00;;;;;;5112519;28;20553;-70
2021/12/13 02:26:57;;;;;;;1.20;1.07;;;6.40;98.00;;;;;;5112285;28;20481;-70
2021/12/13 02:29:35;;;;;;;1.20;1.00;;;6.40;98.00;;;;;;5111058;28;20464;-71
2021/12/13 02:32:04;;;;;;;1.73;1.30;;;6.40;98.00;;;;;;5112249;28;20842;-71
2021/12/13 02:34:33;;;;;;;1.33;1.07;;;6.40;98.00;;;;;;5112178;28;20485;-72
2021/12/13 02:37:01;;;;;;;2.23;2.03;;;6.40;98.00;;;;;;5112268;28;20488;-70
2021/12/13 02:39:32;;;;;;;1.20;1.10;;;6.40;98.00;;;;;;5112239;28;20489;-71
2021/12/13 02:42:02;;;;;;;1.30;1.20;;;6.30;98.00;;;;;;5112006;28;20453;-71
2021/12/13 02:44:37;;;;;;;2.80;1.47;;;6.20;98.00;;;;;;5112147;28;20489;-71
2021/12/13 02:47:07;;;;;;;1.60;1.30;;;6.10;98.00;;;;;;5111946;28;20473;-71
2021/12/13 02:49:34;;;;;;;1.83;1.40;;;6.10;98.00;;;;;;5112070;28;20486;-70
2021/12/13 02:52:06;;;;;;;1.10;1.00;;;6.10;98.00;;;;;;5111989;28;20581;-71
2021/12/13 02:54:39;;;;;;;1.73;1.60;;;6.20;98.00;;;;;;5112090;28;20488;-71
2021/12/13 02:57:12;;;;;;;2.20;1.50;;;6.20;98.00;;;;;;5111965;28;20498;-70
2021/12/13 02:59:42;;;;;;;1.10;1.00;;;6.20;98.00;;;;;;5111954;28;20478;-70
2021/12/13 03:02:13;;;;;;;11.93;1.60;;;6.30;98.00;;;;;;5111998;28;20485;-72
2021/12/13 03:04:40;;;;;;;1.50;1.20;;;6.30;98.00;;;;;;5112022;28;20475;-71
2021/12/13 03:07:13;;;;;;;1.60;1.30;;;6.30;98.00;;;;;;5111955;28;20501;-70
2021/12/13 03:09:44;;;;;;;1.20;1.20;;;6.30;98.00;;;;;;5111914;28;20535;-70
2021/12/13 03:12:14;;;;;;;2.70;1.57;;;6.30;98.00;;;;;;5111876;28;20524;-69
2021/12/13 03:14:46;;;;;;;2.50;1.57;;;6.30;98.00;;;;;;5112010;28;20547;-70
2021/12/13 03:17:18;;;;;;;1.70;1.27;;;6.30;98.00;;;;;;5111995;28;20529;-71
2021/12/13 03:20:02;;;;;;;2.37;1.30;;;6.30;98.00;;;;;;5112215;28;20537;-70
2021/12/13 03:23:08;;;;;;;3.17;1.13;;;6.30;98.00;;;;;;5112021;28;20845;-70
2021/12/13 03:25:54;;;;;;;1.67;1.37;;;6.20;98.00;;;;;;5111979;28;20931;-70
2021/12/13 03:28:39;;;;;;;1.30;1.10;;;6.20;98.00;;;;;;5112001;28;20469;-71
2021/12/13 03:31:10;;;;;;;2.23;1.20;;;6.30;98.00;;;;;;5114282;28;20886;-71
2021/12/13 03:33:44;;;;;;;1.20;1.10;;;6.30;98.00;;;;;;5115897;28;21242;-69
2021/12/13 03:36:16;;;;;;;1.63;1.27;;;6.30;98.00;;;;;;5115873;28;20545;-70
2021/12/13 03:38:46;;;;;;;6.10;1.63;;;6.40;98.00;;;;;;5115957;28;20541;-70
2021/12/13 03:41:18;;;;;;;1.10;1.00;;;6.40;98.00;;;;;;5115709;28;20545;-70
2021/12/13 03:43:49;;;;;;;1.30;1.10;;;6.40;98.00;;;;;;5115849;28;20509;-70
2021/12/13 03:46:19;;;;;;;2.90;1.30;;;6.30;98.00;;;;;;5115371;28;20541;-71
2021/12/13 03:48:48;;;;;;;4.00;1.30;;;6.50;98.00;;;;;;5115350;28;21155;-71
2021/12/13 03:51:20;;;;;;;1.50;1.40;;;6.50;98.00;;;;;;5115456;28;20460;-70
2021/12/13 03:53:52;;;;;;;2.63;1.70;;;6.60;98.00;;;;;;5115238;28;20516;-71
2021/12/13 03:56:23;;;;;;;1.30;1.30;;;6.60;98.00;;;;;;5115063;28;20564;-71
2021/12/13 03:59:06;;;;;;;2.70;1.43;;;6.70;98.00;;;;;;5115344;28;20462;-71
2021/12/13 04:01:40;;;;;;;2.27;1.33;;;6.50;98.00;;;;;;5115145;28;20453;-71
2021/12/13 04:04:11;;;;;;;1.10;1.00;;;6.40;98.00;;;;;;5114996;28;20452;-71
2021/12/13 04:06:45;;;;;;;1.73;1.20;;;6.20;98.00;;;;;;5114871;28;20513;-70
2021/12/13 04:09:13;;;;;;;1.40;1.30;;;6.00;98.00;;;;;;5115011;28;20491;-71
2021/12/13 04:11:44;;;;;;;1.60;1.10;;;6.00;98.00;;;;;;5114820;28;20545;-70
2021/12/13 04:14:18;;;;;;;1.10;0.90;;;6.00;98.00;;;;;;5114769;28;20840;-71
2021/12/13 04:17:03;;;;;;;1.30;1.10;;;6.00;98.00;;;;;;5114822;28;20477;-71
2021/12/13 04:19:40;;;;;;;1.10;1.10;;;6.20;98.00;;;;;;5114959;28;20556;-71
2021/12/13 04:22:12;;;;;;;1.50;1.13;;;6.10;98.00;;;;;;5113693;28;20507;-70
2021/12/13 04:24:42;;;;;;;1.90;1.67;;;6.00;98.00;;;;;;5114755;28;20482;-70
2021/12/13 04:27:18;;;;;;;1.10;1.00;;;5.90;98.00;;;;;;5114948;28;20543;-73
2021/12/13 04:29:48;;;;;;;1.20;1.10;;;6.00;98.00;;;;;;5114754;28;20490;-71
2021/12/13 04:32:19;;;;;;;1.70;1.53;;;6.00;98.00;;;;;;5114548;28;20487;-71
2021/12/13 04:34:47;;;;;;;1.10;1.00;;;6.10;98.00;;;;;;5114776;28;20598;-70
2021/12/13 04:37:17;;;;;;;1.33;1.17;;;6.10;98.00;;;;;;5114567;28;20480;-70
2021/12/13 04:39:49;;;;;;;2.07;1.37;;;6.00;98.00;;;;;;5114467;28;20455;-71
2021/12/13 04:42:20;;;;;;;2.17;1.73;;;6.00;98.00;;;;;;5114028;28;21044;-71
2021/12/13 04:44:50;;;;;;;1.20;1.17;;;5.90;98.00;;;;;;5114587;28;20542;-71
2021/12/13 04:47:22;;;;;;;1.33;1.27;;;6.00;98.00;;;;;;5113986;28;20525;-71
2021/12/13 04:49:58;;;;;;;1.50;1.33;;;5.90;98.00;;;;;;5114401;28;20855;-71
2021/12/13 04:52:25;;;;;;;1.47;1.30;;;5.90;98.00;;;;;;5113875;28;20554;-71
2021/12/13 04:54:55;;;;;;;5.23;1.20;;;5.90;98.00;;;;;;5114289;28;20453;-70
2021/12/13 04:57:24;;;;;;;1.10;0.90;;;5.90;98.00;;;;;;5114023;28;20459;-72
2021/12/13 04:59:58;;;;;;;1.93;1.80;;;5.90;98.00;;;;;;5114483;27;20869;-70
2021/12/13 05:02:26;;;;;;;1.83;1.20;;;6.00;98.00;;;;;;5114094;28;20513;-70
2021/12/13 05:04:57;;;;;;;2.50;1.17;;;6.00;98.00;;;;;;5114156;28;20457;-70
2021/12/13 05:07:26;;;;;;;3.60;1.93;;;6.00;98.00;;;;;;5096104;28;20541;-70
2021/12/13 05:09:54;;;;;;;1.10;1.10;;;6.10;98.00;;;;;;5113791;28;20881;-71
2021/12/13 05:12:26;;;;;;;1.50;1.10;;;6.10;98.00;;;;;;5113674;28;20541;-70
2021/12/13 05:14:59;;;;;;;1.50;1.47;;;6.10;98.00;;;;;;5113917;28;20463;-70
2021/12/13 05:17:30;;;;;;;8.63;2.13;;;6.10;98.00;;;;;;5113454;28;20936;-71
2021/12/13 05:20:01;;;;;;;2.07;1.40;;;6.00;98.00;;;;;;5113628;28;20492;-71
2021/12/13 05:22:30;;;;;;;1.47;1.30;;;6.00;98.00;;;;;;5113621;28;20512;-70
2021/12/13 05:25:01;;;;;;;1.50;1.40;;;6.00;98.00;;;;;;5113535;28;20503;-71
2021/12/13 05:27:33;;;;;;;1.87;1.43;;;6.10;98.00;;;;;;5113478;28;20564;-71
2021/12/13 05:30:12;;;;;;;2.73;1.33;;;6.10;98.00;;;;;;5113487;28;20466;-70
2021/12/13 05:32:43;;;;;;;1.50;1.20;;;6.20;98.00;;;;;;5113486;28;20866;-70
2021/12/13 05:35:18;;;;;;;1.33;1.27;;;6.20;98.00;;;;;;5113415;28;20539;-71
2021/12/13 05:37:48;;;;;;;1.97;1.27;;;6.20;98.00;;;;;;5113328;28;20512;-70
2021/12/13 05:40:18;;;;;;;1.47;1.20;;;6.20;98.00;;;;;;5113258;28;20498;-71
2021/12/13 05:42:49;;;;;;;2.13;1.47;;;6.20;98.00;;;;;;5113138;28;20541;-72
2021/12/13 05:45:20;;;;;;;3.70;1.80;;;6.20;98.00;;;;;;5113123;28;20494;-70
2021/12/13 05:48:07;;;;;;;1.93;1.30;;;6.20;98.00;;;;;;5112976;28;20599;-70
2021/12/13 05:50:39;;;;;;;1.17;1.13;;;6.20;98.00;;;;;;5112891;28;20554;-71
2021/12/13 05:53:10;;;;;;;1.10;0.97;;;6.20;98.00;;;;;;5112336;28;20922;-70
2021/12/13 05:55:54;;;;;;;2.10;1.43;;;6.20;98.00;;;;;;5112949;28;21146;-71
2021/12/13 05:58:41;;;;;;;1.10;0.90;;;6.20;98.00;;;;;;5111623;28;20491;-70
2021/12/13 06:01:14;;;;;;;1.73;1.63;;;6.20;98.00;;;;;;5111666;28;20483;-71
2021/12/13 06:03:48;;;;;;;1.70;1.40;;;6.20;98.00;;;;;;5112943;28;20537;-72
2021/12/13 06:06:19;;;;;;;1.10;0.90;;;6.10;98.00;;;;;;5112906;28;20496;-72
2021/12/13 06:08:49;;;;;;;1.10;1.00;;;6.20;98.00;;;;;;5112907;28;20481;-72
2021/12/13 06:11:19;;;;;;;1.10;0.93;;;6.20;98.00;;;;;;5111392;28;20976;-70
2021/12/13 06:14:04;;;;;;;1.40;1.30;;;6.30;98.00;;;;;;5110708;28;20512;-71
2021/12/13 06:16:42;;;;;;;1.10;1.07;;;6.30;98.00;;;;;;5111859;28;20987;-71
2021/12/13 06:19:16;;;;;;;1.10;1.10;;;6.30;98.00;;;;;;5111971;28;20484;-71
2021/12/13 06:21:54;;;;;;;1.50;1.30;;;6.20;98.00;;;;;;5112644;28;20457;-70
2021/12/13 06:24:28;;;;;;;1.17;1.00;;;6.20;98.00;;;;;;5112839;28;20490;-70
2021/12/13 06:27:14;;;;;;;1.40;1.30;;;6.20;98.00;;;;;;5112021;28;20454;-71
2021/12/13 06:29:52;;;;;;;3.40;1.73;;;6.20;98.00;;;;;;5112294;28;20878;-72
2021/12/13 06:32:44;;;;;;;2.27;1.97;;;6.20;98.00;;;;;;5112174;28;20865;-71
2021/12/13 06:35:51;;;;;;;1.97;1.40;;;6.20;98.00;;;;;;5107112;27;20550;-70
2021/12/13 06:38:44;;;;;;;1.37;1.27;;;6.20;98.00;;;;;;5111158;28;20549;-72
2021/12/13 06:41:16;;;;;;;1.10;1.00;;;6.10;98.00;;;;;;5112029;28;20450;-71
2021/12/13 06:43:48;;;;;;;1.10;1.00;;;6.10;98.00;;;;;;5111036;28;20496;-70
2021/12/13 06:46:35;;;;;;;1.20;1.10;;;6.20;98.00;;;;;;5112191;28;20513;-70
2021/12/13 06:49:11;;;;;;;2.03;1.37;;;6.20;98.00;;;;;;5112014;28;20500;-71
2021/12/13 06:51:43;;;;;;;1.20;1.00;;;6.20;98.00;;;;;;5111911;28;20497;-71
2021/12/13 06:54:14;;;;;;;1.20;1.10;;;6.30;98.00;;;;;;5111964;28;20489;-71
2021/12/13 06:56:43;;;;;;;1.40;1.27;;;6.20;98.00;;;;;;5111721;28;20496;-70
2021/12/13 06:59:18;;;;;;;1.40;1.13;;;6.30;98.00;;;;;;5111671;28;20542;-71
2021/12/13 07:02:02;;;;;;;2.60;1.10;;;6.20;98.00;;;;;;5111881;28;20959;-70
2021/12/13 07:04:56;;;;;;;1.10;1.00;;;6.30;98.00;;;;;;5113537;28;20483;-70
2021/12/13 07:07:26;;;;;;;1.20;1.07;;;6.30;98.00;;;;;;5105512;28;20549;-70
2021/12/13 07:09:56;;;;;;;1.53;1.10;;;6.40;98.00;;;;;;5116206;28;20520;-71
2021/12/13 07:12:26;;;;;;;1.10;1.00;;;6.40;98.00;;;;;;5116018;28;20540;-72
2021/12/13 07:14:53;;;;;;;1.13;1.00;;;6.40;98.00;;;;;;5116011;28;20484;-73
2021/12/13 07:17:27;;;;;;;1.10;1.00;;;6.50;98.00;;;;;;5115947;28;20544;-71
2021/12/13 07:19:57;;;;;;;3.93;1.47;;;6.60;98.00;;;;;;5116006;28;20545;-71
2021/12/13 07:22:26;;;;;;;1.20;1.00;;;6.60;98.00;;;;;;5115993;27;20865;-71
2021/12/13 07:25:02;;;;;;;2.60;1.50;;;6.40;98.00;;;;;;5116028;28;20484;-71
2021/12/13 07:27:32;;;;;;;1.57;1.47;;;6.40;98.00;;;;;;5115338;28;20527;-72
2021/12/13 07:30:05;;;;;;;1.10;1.00;;;6.30;98.00;;;;;;5116062;28;21019;-72
2021/12/13 07:32:37;;;;;;;1.10;1.00;;;6.30;98.00;;;;;;5115881;28;20547;-71
2021/12/13 07:35:08;;;;;;;1.30;1.13;;;6.30;98.00;;;;;;5115753;28;20521;-71
2021/12/13 07:37:44;;;;;;;1.87;1.10;;;6.40;98.00;;;;;;5115694;28;20869;-71
2021/12/13 07:40:26;;;;;;;1.70;1.20;;;6.40;98.00;;;;;;5115710;28;20560;-72
2021/12/13 07:42:58;;;;;;;3.60;1.20;;;6.40;98.00;;;;;;5115953;28;20449;-73
2021/12/13 07:45:29;;;;;;;1.57;1.10;;;6.40;98.00;;;;;;5115716;28;20487;-72
2021/12/13 07:47:59;;;;;;;1.37;1.13;;;6.60;98.00;;;;;;5115720;28;20987;-71
2021/12/13 07:50:28;;;;;;;1.73;1.00;;;6.60;98.00;;;;;;5115507;28;20551;-72
2021/12/13 07:52:59;;;;;;;1.10;1.00;;;6.60;98.00;;;;;;5115793;28;20505;-72
2021/12/13 07:55:30;;;;;;;1.60;1.27;;;6.50;98.00;;;;;;5115232;28;20547;-72
2021/12/13 07:58:01;;;;;;;1.10;0.90;;;6.50;98.00;;;;;;5115389;28;20523;-72
2021/12/13 08:00:34;;;;;;;1.20;1.20;;;6.50;98.00;;;;;;5115068;28;20455;-71
2021/12/13 08:03:06;;;;;;;1.50;1.40;;;6.50;98.00;;;;;;5115366;28;20461;-71
2021/12/13 08:05:38;;;;;;;1.70;1.10;;;6.50;98.00;;;;;;5114704;28;20991;-73
2021/12/13 08:08:11;;;;;;;2.23;1.40;;;6.60;98.00;;;;;;5115061;28;20472;-71
2021/12/13 08:10:41;;;;;;;2.23;1.30;;;6.80;98.00;;;;;;5114969;28;21023;-73
2021/12/13 08:13:13;;;;;;;1.60;1.50;;;7.00;98.00;;;;;;5113922;28;20497;-72
2021/12/13 08:15:42;;;;;;;1.10;1.10;;;7.00;98.00;;;;;;5113783;28;20492;-72
2021/12/13 08:18:24;;;;;;;1.57;1.47;;;7.00;98.00;;;;;;5114843;28;20488;-72
2021/12/13 08:20:54;;;;;;;1.10;1.00;;;7.00;98.00;;;;;;5114594;28;20461;-73
2021/12/13 08:23:25;;;;;;;1.20;1.00;;;7.00;98.00;;;;;;5114747;28;20458;-73
2021/12/13 08:25:55;;;;;;;1.10;1.00;;;7.10;98.00;;;;;;5114486;28;20541;-73
2021/12/13 08:28:39;;;;;;;1.60;1.10;;;7.00;98.00;;;;;;5114678;28;20489;-72
2021/12/13 08:31:09;;;;;;;1.73;1.57;;;6.90;98.00;;;;;;5113418;28;20510;-72
2021/12/13 08:33:42;;;;;;;1.67;1.57;;;6.90;98.00;;;;;;5114537;28;20489;-72
2021/12/13 08:36:11;;;;;;;1.30;1.20;;;6.90;98.00;;;;;;5114340;28;20493;-73
2021/12/13 08:38:46;;;;;;;1.60;1.40;;;6.90;98.00;;;;;;5114635;28;20490;-70
2021/12/13 08:41:29;;;;;;;1.70;1.00;;;6.90;98.00;;;;;;5114418;28;20490;-70
2021/12/13 08:44:00;;;;;;;1.10;1.00;;;7.00;98.00;;;;;;5112261;28;20583;-72
2021/12/13 08:46:40;;;;;;;2.23;1.40;;;7.10;98.00;;;;;;5110960;28;20512;-70
2021/12/13 08:49:26;;;;;;;1.87;1.33;;;7.10;98.00;;;;;;5111294;28;20451;-70
2021/12/13 08:52:02;;;;;;;1.20;1.10;;;7.10;98.00;;;;;;5109398;28;20622;-70
2021/12/13 08:54:53;;;;;;;1.10;1.00;;;7.10;98.00;;;;;;5111453;28;20553;-71
2021/12/13 08:57:45;;;;;;;1.10;0.90;;;7.20;98.00;;;;;;5103073;28;20490;-69
2021/12/13 09:00:26;;;;;;;4.07;1.30;;;7.30;98.00;;;;;;5111097;28;21101;-69
2021/12/13 09:02:56;;;;;;;1.30;1.20;;;7.40;98.00;;;;;;5111408;28;20457;-70
2021/12/13 09:05:29;;;;;;;1.20;1.20;;;7.40;98.00;;;;;;5111279;28;20968;-69
2021/12/13 09:07:59;;;;;;;1.83;1.53;;;7.50;98.00;;;;;;5111212;28;20463;-70
2021/12/13 09:10:41;;;;;;;1.10;1.00;;;7.70;98.00;;;;;;5111171;28;21111;-71
2021/12/13 09:13:09;;;;;;;1.10;1.00;;;7.60;98.00;;;;;;5111551;28;20546;-71
2021/12/13 09:15:42;;;;;;;1.90;1.50;;;7.60;98.00;;;;;;5111166;28;20519;-69
2021/12/13 09:18:18;;;;;;;1.10;1.00;;;7.60;98.00;;;;;;5110891;28;20462;-69
2021/12/13 09:20:50;;;;;;;2.60;1.97;;;7.60;98.00;;;;;;5109732;28;21116;-71
2021/12/13 09:23:19;;;;;;;2.17;1.30;;;7.70;98.00;;;;;;5110864;28;20486;-69
2021/12/13 09:25:51;;;;;;;1.20;1.10;;;7.80;98.00;;;;;;5110665;28;20493;-71
2021/12/13 09:28:22;;;;;;;1.37;1.30;;;7.80;98.00;;;;;;5109475;28;20551;-71
2021/12/13 09:30:52;;;;;;;1.63;1.10;;;7.90;98.00;;;;;;5110792;28;20463;-69
2021/12/13 09:33:22;;;;;;;1.50;1.40;;;7.90;98.00;;;;;;5110533;28;20461;-70
2021/12/13 09:35:53;;;;;;;1.30;1.20;;;7.90;98.00;;;;;;5110485;28;20586;-68
2021/12/13 09:38:41;;;;;;;1.10;1.00;;;8.00;98.00;;;;;;5110440;28;20468;-68
2021/12/13 09:41:28;;;;;;;1.30;1.30;;;8.00;98.00;;;;;;5109678;28;20965;-68
2021/12/13 09:43:59;;;;;;;1.20;1.20;;;8.00;98.00;;;;;;5110513;28;20458;-71
2021/12/13 09:46:37;;;;;;;1.40;1.30;;;8.00;98.00;;;;;;5110193;28;20554;-71
2021/12/13 09:49:09;;;;;;;1.63;1.60;;;8.10;98.00;;;;;;5110662;28;20494;-70
2021/12/13 09:51:43;;;;;;;1.10;1.00;;;8.10;98.00;;;;;;5108887;28;20497;-72
2021/12/13 09:54:13;;;;;;;1.20;1.20;;;8.20;98.00;;;;;;5110306;28;20523;-71
2021/12/13 09:56:49;;;;;;;1.20;1.20;;;8.30;98.00;;;;;;5110242;28;20605;-71
2021/12/13 09:59:23;;;;;;;2.27;1.40;;;8.30;98.00;;;;;;5110149;28;20544;-70
2021/12/13 10:01:53;;;;;;;1.77;1.50;;;8.30;98.00;;;;;;5110047;28;20520;-71
2021/12/13 10:04:28;;;;;;;1.77;1.30;;;8.40;98.00;;;;;;5110276;28;20459;-71
2021/12/13 10:07:01;;;;;;;2.03;1.50;;;8.30;98.00;;;;;;5110098;28;20457;-71
2021/12/13 10:09:31;;;;;;;1.30;1.23;;;8.40;98.00;;;;;;5109988;28;20487;-71
2021/12/13 10:12:02;;;;;;;1.10;1.00;;;8.30;98.00;;;;;;5109896;28;20542;-71
2021/12/13 10:14:34;;;;;;;1.10;1.00;;;8.40;98.00;;;;;;5110108;28;20514;-71
2021/12/13 10:17:04;;;;;;;2.07;1.63;;;8.50;98.00;;;;;;5110000;28;20487;-72
2021/12/13 10:19:34;;;;;;;1.10;0.90;;;8.60;98.00;;;;;;5109821;28;20483;-73
2021/12/13 10:22:05;;;;;;;2.20;2.00;;;8.70;98.00;;;;;;5109567;28;20532;-72
2021/12/13 10:24:37;;;;;;;1.10;1.00;;;8.70;98.00;;;;;;5110011;28;20956;-74
2021/12/13 10:27:07;;;;;;;1.20;1.10;;;8.70;98.00;;;;;;5109714;28;20466;-72
2021/12/13 10:29:35;;;;;;;1.20;1.20;;;8.70;98.00;;;;;;5109826;28;20538;-71
2021/12/13 10:32:08;;;;;;;2.93;1.77;;;8.80;98.00;;;;;;5108569;28;20487;-72
2021/12/13 10:34:41;;;;;;;1.13;1.07;;;8.70;98.00;;;;;;5109925;28;20481;-71
2021/12/13 10:37:14;;;;;;;1.10;0.90;;;8.70;98.00;;;;;;5109603;28;20504;-72
2021/12/13 10:39:45;;;;;;;1.10;0.90;;;8.70;98.00;;;;;;5109570;28;20484;-69
2021/12/13 10:42:15;;;;;;;1.20;1.17;;;8.70;98.00;;;;;;5109089;28;20556;-67
2021/12/13 10:44:44;;;;;;;1.30;1.20;;;8.80;98.00;;;;;;5101247;28;20537;-70
2021/12/13 10:47:18;;;;;;;1.20;1.20;;;8.90;98.00;;;;;;5091233;28;20483;-71
2021/12/13 10:49:50;;;;;;;2.67;1.93;;;8.80;98.00;;;;;;5086254;28;20568;-71
2021/12/13 10:52:23;;;;;;;2.03;1.13;;;8.60;98.00;;;;;;5088455;28;20456;-70
2021/12/13 10:54:53;;;;;;;1.63;1.57;;;8.60;98.00;;;;;;5088364;28;20574;-71
2021/12/13 10:57:24;;;;;;;1.97;1.50;;;8.60;98.00;;;;;;5088330;28;20468;-72
2021/12/13 10:59:51;;;;;;;1.30;1.03;;;8.80;98.00;;;;;;5088296;28;21062;-71
2021/12/13 11:02:29;;;;;;;2.03;1.83;;;8.80;98.00;;;;;;5088463;28;20553;-71
2021/12/13 11:04:59;;;;;;;1.20;1.10;;;8.80;98.00;;;;;;5088747;28;20541;-71
2021/12/13 11:07:29;;;;;;;1.20;1.10;;;8.80;98.00;;;;;;5087905;28;20489;-71
2021/12/13 11:09:58;;;;;;;1.50;1.30;;;8.60;98.00;;;;;;5087862;28;20970;-71
2021/12/13 11:12:28;;;;;;;1.10;1.10;;;8.50;98.00;;;;;;5088234;28;20543;-71
2021/12/13 11:14:59;;;;;;;1.20;1.20;;;8.40;98.00;;;;;;5088409;28;20519;-72
2021/12/13 11:17:29;;;;;;;1.60;1.20;;;8.30;98.00;;;;;;5088195;28;20483;-71
2021/12/13 11:19:58;;;;;;;1.20;1.10;;;8.40;98.00;;;;;;5088268;28;20536;-70
2021/12/13 11:22:30;;;;;;;3.80;1.53;;;8.30;98.00;;;;;;5088113;28;20536;-69
2021/12/13 11:25:05;;;;;;;1.40;1.10;;;8.20;98.00;;;;;;5088157;28;20500;-69
2021/12/13 11:27:34;;;;;;;1.60;1.50;;;8.30;98.00;;;;;;5089194;28;20493;-73
2021/12/13 11:30:09;;;;;;;1.20;1.00;;;8.40;98.00;;;;;;5088363;28;20491;-73
2021/12/13 11:33:09;;;;;;;1.20;1.10;;;8.40;98.00;;;;;;5088205;28;20453;-73
2021/12/13 11:36:13;;;;;;;1.10;0.90;;;8.30;98.00;;;;;;5082172;28;20497;-72
2021/12/13 11:39:09;;;;;;;1.10;1.00;;;8.30;98.00;;;;;;5088655;28;20458;-70
2021/12/13 11:41:59;;;;;;;1.40;1.27;;;8.50;98.00;;;;;;5061995;28;20539;-72
2021/12/13 11:44:54;;;;;;;1.10;1.07;;;8.50;98.00;;;;;;5088230;28;20532;-73
2021/12/13 11:47:45;;;;;;;1.83;1.47;;;8.40;98.00;;;;;;5057538;28;20460;-73
2021/12/13 11:50:44;;;;;;;1.10;0.90;;;8.40;98.00;;;;;;5079553;28;20484;-73
2021/12/13 11:53:54;;;;;;;1.10;1.00;;;8.60;98.00;;;;;;5092768;28;20505;-73
2021/12/13 11:56:57;;;;;;;1.20;1.10;;;8.70;98.00;;;;;;5057859;28;20615;-73
2021/12/13 11:59:38;;;;;;;1.10;1.00;;;8.70;98.00;;;;;;5080941;28;20500;-73
2021/12/13 12:02:16;;;;;;;1.30;1.20;;;8.60;98.00;;;;;;5091928;28;21005;-72
2021/12/13 12:05:37;;;;;;;1.53;1.20;;;8.50;98.00;;;;;;5092204;28;20530;-74
2021/12/13 12:08:25;;;;;;;1.10;0.90;;;8.50;98.00;;;;;;5088615;28;20544;-72
2021/12/13 12:11:28;;;;;;;1.80;1.50;;;8.40;98.00;;;;;;5091650;28;20464;-73
2021/12/13 12:14:06;;;;;;;1.10;1.00;;;8.50;98.00;;;;;;5085697;28;20651;-72
2021/12/13 12:16:37;;;;;;;2.03;1.87;;;8.80;98.00;;;;;;5091549;28;20490;-72
2021/12/13 12:19:06;;;;;;;1.20;1.17;;;8.80;98.00;;;;;;5091338;28;20486;-72
2021/12/13 12:21:48;;;;;;;1.10;0.93;;;8.70;98.00;;;;;;5091301;28;20458;-73
2021/12/13 12:24:23;;;;;;;1.10;1.00;;;8.80;98.00;;;;;;5091524;28;20952;-73
2021/12/13 12:26:52;;;;;;;1.10;1.00;;;8.70;98.00;;;;;;5090870;28;20552;-73
2021/12/13 12:29:24;;;;;;;1.20;1.17;;;8.60;98.00;;;;;;5091591;28;20506;-73
2021/12/13 12:31:57;;;;;;;1.10;1.00;;;8.70;98.00;;;;;;5091012;28;20453;-73
2021/12/13 12:34:25;;;;;;;1.70;1.30;;;8.80;98.00;;;;;;5091455;28;20459;-72
2021/12/13 12:37:42;;;;;;;1.10;1.00;;;8.70;98.00;;;;;;5091151;28;20487;-73
2021/12/13 12:40:23;;;;;;;1.10;1.00;;;8.90;98.00;;;;;;5087849;28;20506;-72
2021/12/13 12:42:53;;;;;;;1.10;1.00;;;9.80;98.00;;;;;;5090875;28;20900;-72
2021/12/13 12:45:27;;;;;;;1.20;0.90;;;10.80;98.00;;;;;;5090823;28;20521;-71
2021/12/13 12:48:05;;;;;;;1.40;1.20;;;11.50;98.00;;;;;;5090380;28;20543;-72
2021/12/13 12:50:35;;;;;;;2.13;1.67;;;11.70;98.00;;;;;;5088529;28;20486;-74
2021/12/13 12:53:07;;;;;;;1.40;1.23;;;11.70;98.00;;;;;;5090992;28;20500;-74
2021/12/13 12:55:37;;;;;;;1.20;1.10;;;11.20;98.00;;;;;;5090654;28;20566;-74
2021/12/13 12:58:09;;;;;;;2.70;1.50;;;11.00;98.00;;;;;;5090734;28;20482;-73
2021/12/13 13:00:39;;;;;;;1.20;1.07;;;10.80;98.00;;;;;;5090581;28;20792;-76
2021/12/13 13:03:13;;;;;;;1.93;1.60;;;10.30;98.00;;;;;;5090460;28;20460;-75
2021/12/13 13:05:43;;;;;;;1.40;1.10;;;10.30;98.00;;;;;;5090498;28;20456;-73
2021/12/13 13:08:11;;;;;;;1.20;1.00;;;10.30;98.00;;;;;;5088925;28;20466;-73
2021/12/13 13:10:49;;;;;;;1.30;1.10;;;10.30;98.00;;;;;;5090398;28;20820;-73
2021/12/13 13:13:18;;;;;;;3.30;1.20;;;10.20;98.00;;;;;;5090152;28;20464;-74
2021/12/13 13:15:51;;;;;;;2.33;1.47;;;10.10;98.00;;;;;;5089115;28;20487;-72
2021/12/13 13:18:24;;;;;;;1.70;1.23;;;9.80;98.00;;;;;;5091511;28;20509;-73
2021/12/13 13:20:55;;;;;;;1.63;1.20;;;9.70;98.00;;;;;;5092916;28;20495;-73
2021/12/13 13:23:24;;;;;;;1.77;1.20;;;9.60;98.00;;;;;;5092628;28;20516;-73
2021/12/13 13:25:56;;;;;;;1.20;1.10;;;9.40;98.00;;;;;;5092993;28;20505;-74
2021/12/13 13:28:27;;;;;;;1.20;1.00;;;9.20;98.00;;;;;;5092478;28;20448;-73
2021/12/13 13:31:01;;;;;;;1.10;0.90;;;9.20;98.00;;;;;;5092788;28;20879;-73
2021/12/13 13:33:35;;;;;;;1.10;0.90;;;9.20;98.00;;;;;;5091115;28;20489;-73
2021/12/13 13:36:05;;;;;;;1.10;1.00;;;9.10;98.00;;;;;;5092354;28;20489;-73
2021/12/13 13:38:33;;;;;;;1.50;1.40;;;9.20;98.00;;;;;;5092112;28;20950;-73
2021/12/13 13:41:01;;;;;;;2.60;1.93;;;9.40;98.00;;;;;;5092164;28;20868;-73
2021/12/13 13:43:31;;;;;;;1.20;1.10;;;9.40;98.00;;;;;;5091052;28;20457;-73
2021/12/13 13:46:00;;;;;;;1.50;1.10;;;9.50;98.00;;;;;;5093716;28;20495;-74